createdAt,value
2023-03-17T00:00:39.519Z,11.10
2023-03-17T00:03:07.468Z,11.10
2023-03-17T00:05:36.148Z,11.00
2023-03-17T00:08:06.302Z,11.00
2023-03-17T00:10:34.254Z,11.00
2023-03-17T00:13:03.792Z,11.00
2023-03-17T00:15:31.794Z,11.00
2023-03-17T00:17:59.790Z,11.00
2023-03-17T00:20:28.944Z,11.10
2023-03-17T00:22:58.464Z,11.00
2023-03-17T00:25:27.310Z,11.10
2023-03-17T00:27:55.442Z,11.10
2023-03-17T00:30:25.010Z,11.00
2023-03-17T00:32:53.407Z,11.00
2023-03-17T00:35:23.018Z,10.90
2023-03-17T00:37:52.417Z,10.90
2023-03-17T00:40:22.350Z,10.90
2023-03-17T00:42:51.123Z,10.80
2023-03-17T00:45:19.696Z,10.90
2023-03-17T00:47:49.252Z,10.90
2023-03-17T00:50:18.445Z,11.00
2023-03-17T00:52:47.141Z,11.00
2023-03-17T00:55:15.682Z,11.00
2023-03-17T00:57:43.850Z,11.00
2023-03-17T01:00:23.049Z,11.00
2023-03-17T01:02:52.604Z,11.00
2023-03-17T01:05:21.028Z,11.00
2023-03-17T01:07:52.935Z,10.90
2023-03-17T01:10:22.600Z,10.90
2023-03-17T01:12:51.352Z,10.80
2023-03-17T01:15:19.757Z,10.90
2023-03-17T01:17:47.788Z,10.90
2023-03-17T01:20:19.468Z,11.00
2023-03-17T01:22:47.908Z,11.00
2023-03-17T01:25:17.198Z,11.00
2023-03-17T01:27:45.684Z,11.00
2023-03-17T01:30:23.799Z,11.00
2023-03-17T01:32:51.874Z,11.00
2023-03-17T01:35:21.542Z,11.00
2023-03-17T01:37:50.509Z,10.90
2023-03-17T01:40:20.292Z,10.90
2023-03-17T01:42:49.670Z,10.80
2023-03-17T01:45:54.958Z,10.90
2023-03-17T01:48:23.533Z,10.90
2023-03-17T01:50:53.320Z,10.90
2023-03-17T01:53:21.439Z,10.90
2023-03-17T01:55:49.520Z,10.90
2023-03-17T01:58:17.812Z,10.90
2023-03-17T02:00:46.557Z,11.00
2023-03-17T02:03:15.664Z,11.00
2023-03-17T02:05:44.169Z,10.90
2023-03-17T02:08:14.806Z,10.90
2023-03-17T02:10:43.440Z,10.90
2023-03-17T02:13:11.948Z,10.80
2023-03-17T02:15:40.936Z,10.80
2023-03-17T02:18:09.115Z,10.90
2023-03-17T02:21:14.303Z,10.90
2023-03-17T02:23:43.878Z,10.90
2023-03-17T02:26:12.678Z,11.00
2023-03-17T02:28:41.070Z,11.00
2023-03-17T02:31:09.517Z,10.90
2023-03-17T02:33:37.578Z,10.90
2023-03-17T02:36:06.255Z,10.90
2023-03-17T02:38:34.295Z,10.90
2023-03-17T02:41:03.796Z,10.80
2023-03-17T02:43:31.859Z,10.80
2023-03-17T02:45:59.991Z,10.80
2023-03-17T02:48:28.108Z,10.70
2023-03-17T02:50:56.188Z,10.80
2023-03-17T02:53:24.286Z,10.80
2023-03-17T02:55:52.320Z,10.80
2023-03-17T02:58:21.743Z,10.80
2023-03-17T03:00:53.200Z,10.80
2023-03-17T03:03:21.260Z,10.80
2023-03-17T03:05:49.309Z,10.90
2023-03-17T03:08:17.540Z,10.90
2023-03-17T03:10:45.802Z,10.80
2023-03-17T03:13:13.836Z,10.80
2023-03-17T03:15:43.950Z,10.80
2023-03-17T03:18:12.620Z,10.80
2023-03-17T03:20:43.173Z,10.80
2023-03-17T03:23:11.445Z,10.80
2023-03-17T03:25:39.648Z,10.80
2023-03-17T03:28:08.760Z,10.90
2023-03-17T03:30:37.114Z,10.90
2023-03-17T03:33:06.650Z,10.80
2023-03-17T03:35:35.399Z,10.90
2023-03-17T03:38:03.620Z,10.90
2023-03-17T03:40:32.169Z,10.90
2023-03-17T03:43:07.528Z,10.90
2023-03-17T03:45:41.015Z,10.80
2023-03-17T03:48:10.501Z,10.80
2023-03-17T03:50:38.653Z,10.80
2023-03-17T03:53:07.307Z,10.80
2023-03-17T03:55:35.319Z,10.80
2023-03-17T03:58:03.370Z,10.80
2023-03-17T04:00:32.410Z,10.80
2023-03-17T04:03:01.374Z,10.80
2023-03-17T04:05:30.975Z,10.80
2023-03-17T04:07:59.187Z,10.90
2023-03-17T04:10:27.378Z,10.80
2023-03-17T04:12:55.836Z,10.90
2023-03-17T04:17:59.894Z,10.70
2023-03-17T04:20:28.163Z,10.70
2023-03-17T04:22:57.880Z,10.70
2023-03-17T04:25:26.050Z,10.80
2023-03-17T04:27:54.062Z,10.80
2023-03-17T04:30:22.122Z,10.90
2023-03-17T04:32:50.136Z,10.90
2023-03-17T04:35:19.121Z,10.90
2023-03-17T04:37:48.516Z,10.90
2023-03-17T04:40:18.775Z,10.90
2023-03-17T04:42:46.823Z,10.90
2023-03-17T04:45:15.529Z,10.80
2023-03-17T04:47:43.621Z,10.80
2023-03-17T04:50:12.611Z,10.70
2023-03-17T04:52:40.647Z,10.70
2023-03-17T04:55:09.571Z,10.70
2023-03-17T04:57:38.987Z,10.70
2023-03-17T05:00:08.323Z,10.70
2023-03-17T05:02:38.969Z,10.70
2023-03-17T05:05:07.500Z,10.80
2023-03-17T05:07:35.592Z,10.80
2023-03-17T05:10:03.718Z,10.80
2023-03-17T05:12:31.742Z,10.90
2023-03-17T05:15:01.153Z,10.80
2023-03-17T05:17:29.201Z,10.80
2023-03-17T05:19:57.247Z,10.80
2023-03-17T05:22:25.249Z,10.70
2023-03-17T05:24:53.271Z,10.70
2023-03-17T05:27:21.561Z,10.70
2023-03-17T05:29:49.859Z,10.80
2023-03-17T05:32:19.867Z,10.80
2023-03-17T05:34:48.056Z,10.80
2023-03-17T05:37:16.068Z,10.80
2023-03-17T05:39:44.080Z,10.80
2023-03-17T05:42:12.251Z,10.80
2023-03-17T05:44:40.301Z,10.80
2023-03-17T05:47:08.655Z,10.90
2023-03-17T05:49:38.058Z,10.80
2023-03-17T05:52:06.212Z,10.70
2023-03-17T05:54:34.190Z,10.70
2023-03-17T05:57:02.167Z,10.60
2023-03-17T05:59:30.156Z,10.60
2023-03-17T06:01:58.139Z,10.70
2023-03-17T06:04:26.489Z,10.80
2023-03-17T06:06:55.891Z,10.70
2023-03-17T06:09:24.028Z,10.80
2023-03-17T06:11:52.046Z,10.80
2023-03-17T06:14:20.067Z,10.90
2023-03-17T06:16:48.110Z,10.90
2023-03-17T06:19:16.769Z,10.90
2023-03-17T06:21:44.801Z,10.90
2023-03-17T06:24:14.314Z,11.00
2023-03-17T06:26:42.492Z,11.00
2023-03-17T06:29:11.795Z,10.90
2023-03-17T06:31:39.916Z,11.00
2023-03-17T06:34:08.290Z,11.10
2023-03-17T06:36:38.559Z,11.20
2023-03-17T06:39:06.682Z,11.20
2023-03-17T06:41:36.132Z,11.30
2023-03-17T06:44:05.388Z,11.30
2023-03-17T06:46:33.593Z,11.40
2023-03-17T06:49:03.386Z,11.40
2023-03-17T06:51:32.458Z,11.40
2023-03-17T06:54:00.871Z,11.50
2023-03-17T06:56:30.584Z,11.60
2023-03-17T06:59:00.296Z,11.60
2023-03-17T07:01:28.759Z,11.60
2023-03-17T07:03:56.818Z,11.70
2023-03-17T07:06:24.841Z,11.80
2023-03-17T07:08:52.863Z,11.80
2023-03-17T07:11:23.588Z,11.80
2023-03-17T07:13:52.054Z,11.90
2023-03-17T07:16:21.518Z,11.90
2023-03-17T07:18:49.694Z,12.00
2023-03-17T07:21:17.759Z,12.10
2023-03-17T07:23:45.786Z,12.10
2023-03-17T07:26:13.917Z,12.30
2023-03-17T07:28:42.045Z,12.30
2023-03-17T07:31:14.079Z,12.30
2023-03-17T07:33:43.535Z,12.30
2023-03-17T07:36:11.606Z,12.40
2023-03-17T07:38:39.911Z,12.40
2023-03-17T07:41:10.189Z,12.50
2023-03-17T07:43:38.985Z,12.50
2023-03-17T07:46:07.529Z,12.60
2023-03-17T07:48:38.063Z,12.60
2023-03-17T07:51:07.583Z,12.70
2023-03-17T07:53:36.007Z,12.70
2023-03-17T07:56:04.104Z,12.80
2023-03-17T07:58:32.569Z,12.80
2023-03-17T08:01:00.704Z,12.80
2023-03-17T08:03:30.591Z,12.90
2023-03-17T08:05:59.535Z,12.90
2023-03-17T08:08:29.260Z,12.90
2023-03-17T08:10:59.766Z,12.90
2023-03-17T08:13:27.854Z,13.00
2023-03-17T08:15:55.936Z,13.00
2023-03-17T08:18:24.038Z,13.00
2023-03-17T08:20:52.418Z,13.00
2023-03-17T08:23:20.572Z,13.10
2023-03-17T08:25:50.129Z,13.10
2023-03-17T08:28:18.151Z,13.00
2023-03-17T08:30:50.396Z,13.00
2023-03-17T08:33:18.714Z,13.10
2023-03-17T08:35:47.060Z,13.10
2023-03-17T08:38:15.178Z,13.10
2023-03-17T08:40:43.188Z,13.10
2023-03-17T08:43:12.629Z,13.20
2023-03-17T08:45:40.751Z,13.20
2023-03-17T08:48:09.632Z,13.20
2023-03-17T08:50:37.845Z,13.30
2023-03-17T08:53:05.866Z,13.30
2023-03-17T08:55:33.853Z,13.30
2023-03-17T08:58:02.710Z,13.30
2023-03-17T09:00:32.550Z,13.30
2023-03-17T09:03:00.789Z,13.30
2023-03-17T09:05:29.473Z,13.30
2023-03-17T09:07:57.558Z,13.40
2023-03-17T09:10:25.667Z,13.40
2023-03-17T09:12:54.479Z,13.40
2023-03-17T09:15:22.547Z,13.40
2023-03-17T09:17:51.964Z,13.50
2023-03-17T09:20:20.596Z,13.50
2023-03-17T09:22:49.186Z,13.50
2023-03-17T09:25:17.410Z,13.50
2023-03-17T09:27:45.380Z,13.50
2023-03-17T09:30:14.195Z,13.50
2023-03-17T09:32:42.427Z,13.50
2023-03-17T09:35:12.015Z,13.50
2023-03-17T09:37:40.100Z,13.50
2023-03-17T09:40:09.355Z,13.60
2023-03-17T09:42:44.486Z,13.60
2023-03-17T09:45:16.647Z,13.60
2023-03-17T09:47:57.357Z,13.60
2023-03-17T09:50:28.441Z,13.60
2023-03-17T09:52:56.915Z,13.70
2023-03-17T09:55:27.755Z,13.70
2023-03-17T09:57:56.952Z,13.60
2023-03-17T10:00:27.441Z,13.60
2023-03-17T10:02:55.629Z,13.50
2023-03-17T10:05:26.450Z,13.60
2023-03-17T10:07:59.456Z,13.60
2023-03-17T10:10:31.307Z,13.60
2023-03-17T10:13:02.294Z,13.50
2023-03-17T10:15:34.719Z,13.60
2023-03-17T10:18:03.546Z,13.60
2023-03-17T10:20:34.359Z,13.60
2023-03-17T10:23:03.733Z,13.60
2023-03-17T10:25:32.935Z,13.60
2023-03-17T10:28:07.018Z,13.50
2023-03-17T10:30:36.449Z,13.40
2023-03-17T10:33:07.071Z,13.50
2023-03-17T10:35:39.454Z,13.50
2023-03-17T10:38:15.933Z,13.50
2023-03-17T10:40:47.839Z,13.50
2023-03-17T10:43:20.660Z,13.50
2023-03-17T10:45:55.875Z,13.50
2023-03-17T10:48:23.905Z,13.50
2023-03-17T10:50:54.400Z,13.50
2023-03-17T10:53:28.340Z,13.50
2023-03-17T10:55:58.865Z,13.50
2023-03-17T10:58:37.263Z,13.40
2023-03-17T11:01:07.824Z,13.40
2023-03-17T11:03:38.858Z,13.40
2023-03-17T11:06:10.174Z,13.40
2023-03-17T11:08:40.225Z,13.40
2023-03-17T11:11:10.265Z,13.40
2023-03-17T11:13:38.292Z,13.30
2023-03-17T11:16:10.675Z,13.40
2023-03-17T11:18:38.930Z,13.40
2023-03-17T11:21:10.216Z,13.40
2023-03-17T11:23:53.299Z,13.40
2023-03-17T11:26:40.957Z,13.40
2023-03-17T11:29:27.954Z,13.40
2023-03-17T11:31:59.463Z,13.40
2023-03-17T11:34:34.020Z,13.30
2023-03-17T11:37:07.471Z,13.20
2023-03-17T11:39:38.933Z,13.20
2023-03-17T11:42:09.537Z,13.20
2023-03-17T11:44:54.175Z,13.30
2023-03-17T11:47:50.627Z,13.30
2023-03-17T11:50:24.539Z,13.20
2023-03-17T11:53:00.043Z,13.20
2023-03-17T11:55:31.590Z,13.30
2023-03-17T11:58:01.072Z,13.40
2023-03-17T12:00:31.068Z,13.40
2023-03-17T12:03:01.111Z,13.40
2023-03-17T12:05:29.962Z,13.30
2023-03-17T12:08:00.730Z,13.40
2023-03-17T12:10:34.079Z,13.30
2023-03-17T12:13:04.895Z,13.30
2023-03-17T12:15:36.402Z,13.30
2023-03-17T12:18:06.933Z,13.20
2023-03-17T12:20:48.164Z,13.30
2023-03-17T12:23:20.097Z,13.40
2023-03-17T12:25:51.277Z,13.40
2023-03-17T12:28:22.952Z,13.40
2023-03-17T12:30:54.540Z,13.40
2023-03-17T12:33:25.523Z,13.40
2023-03-17T12:35:53.842Z,13.40
2023-03-17T12:38:26.186Z,13.40
2023-03-17T12:41:08.924Z,13.30
2023-03-17T12:43:38.770Z,13.30
2023-03-17T12:46:29.926Z,13.30
2023-03-17T12:49:28.028Z,13.30
2023-03-17T12:52:03.222Z,13.40
2023-03-17T12:54:33.470Z,13.40
2023-03-17T12:57:03.018Z,13.50
2023-03-17T12:59:34.104Z,13.40
2023-03-17T13:02:15.556Z,13.40
2023-03-17T13:04:50.463Z,13.40
2023-03-17T13:07:20.060Z,13.40
2023-03-17T13:09:50.739Z,13.40
2023-03-17T13:12:56.589Z,13.40
2023-03-17T13:15:30.896Z,13.40
2023-03-17T13:18:23.412Z,13.40
2023-03-17T13:20:53.687Z,13.50
2023-03-17T13:23:22.307Z,13.50
2023-03-17T13:25:53.739Z,13.50
2023-03-17T13:28:27.093Z,13.50
2023-03-17T13:31:09.818Z,13.50
2023-03-17T13:33:42.210Z,13.40
2023-03-17T13:36:28.622Z,13.40
2023-03-17T13:39:22.927Z,13.40
2023-03-17T13:42:17.770Z,13.40
2023-03-17T13:45:09.638Z,13.40
2023-03-17T13:47:38.412Z,13.40
2023-03-17T13:50:09.243Z,13.40
2023-03-17T13:52:40.897Z,13.40
2023-03-17T13:55:39.689Z,13.40
2023-03-17T13:58:36.859Z,13.50
2023-03-17T14:01:07.325Z,13.50
2023-03-17T14:03:39.016Z,13.40
2023-03-17T14:06:08.829Z,13.40
2023-03-17T14:08:37.488Z,13.40
2023-03-17T14:11:08.959Z,13.40
2023-03-17T14:13:41.431Z,13.40
2023-03-17T14:16:15.325Z,13.40
2023-03-17T14:18:43.959Z,13.50
2023-03-17T14:21:22.217Z,13.50
2023-03-17T14:23:56.225Z,13.40
2023-03-17T14:26:24.897Z,13.50
2023-03-17T14:28:54.363Z,13.50
2023-03-17T14:31:23.866Z,13.40
2023-03-17T14:33:53.153Z,13.40
2023-03-17T14:36:21.416Z,13.40
2023-03-17T14:38:50.827Z,13.40
2023-03-17T14:41:19.881Z,13.40
2023-03-17T14:43:48.175Z,13.40
2023-03-17T14:46:18.534Z,13.40
2023-03-17T14:48:48.600Z,13.40
2023-03-17T14:51:24.349Z,13.40
2023-03-17T14:53:52.787Z,13.50
2023-03-17T14:56:23.175Z,13.50
2023-03-17T14:58:52.052Z,13.50
2023-03-17T15:01:23.741Z,13.40
2023-03-17T15:03:56.380Z,13.40
2023-03-17T15:06:26.062Z,13.40
2023-03-17T15:08:54.280Z,13.40
2023-03-17T15:11:33.915Z,13.40
2023-03-17T15:14:07.215Z,13.40
2023-03-17T15:16:36.982Z,13.40
2023-03-17T15:19:07.774Z,13.40
2023-03-17T15:21:39.179Z,13.40
2023-03-17T15:24:21.016Z,13.40
2023-03-17T15:26:49.092Z,13.40
2023-03-17T15:29:17.158Z,13.40
2023-03-17T15:31:46.643Z,13.30
2023-03-17T15:34:14.971Z,13.30
2023-03-17T15:36:44.182Z,13.20
2023-03-17T15:39:12.186Z,13.30
2023-03-17T15:41:40.360Z,13.20
2023-03-17T15:44:08.435Z,13.30
2023-03-17T15:46:36.784Z,13.30
2023-03-17T15:49:10.696Z,13.30
2023-03-17T15:51:38.764Z,13.30
2023-03-17T15:54:06.851Z,13.30
2023-03-17T15:56:35.634Z,13.30
2023-03-17T15:59:04.694Z,13.30
2023-03-17T16:01:33.003Z,13.30
2023-03-17T16:04:01.888Z,13.30
2023-03-17T16:06:31.343Z,13.30
2023-03-17T16:08:59.400Z,13.30
2023-03-17T16:11:28.933Z,13.20
2023-03-17T16:13:57.103Z,13.30
2023-03-17T16:16:30.424Z,13.20
2023-03-17T16:18:58.466Z,13.30
2023-03-17T16:21:26.516Z,13.20
2023-03-17T16:23:55.933Z,13.20
2023-03-17T16:26:23.969Z,13.30
2023-03-17T16:28:52.052Z,13.30
2023-03-17T16:31:22.852Z,13.20
2023-03-17T16:33:51.326Z,13.20
2023-03-17T16:36:20.413Z,13.20
2023-03-17T16:38:49.135Z,13.20
2023-03-17T16:41:20.536Z,13.20
2023-03-17T16:43:53.704Z,13.10
2023-03-17T16:46:22.375Z,13.20
2023-03-17T16:48:50.970Z,13.20
2023-03-17T16:51:19.058Z,13.20
2023-03-17T16:53:47.130Z,13.20
2023-03-17T16:56:17.347Z,13.20
2023-03-17T16:58:46.955Z,13.20
2023-03-17T17:01:16.833Z,13.20
2023-03-17T17:03:45.000Z,13.20
2023-03-17T17:06:14.392Z,13.10
2023-03-17T17:08:43.645Z,13.10
2023-03-17T17:11:13.091Z,13.10
2023-03-17T17:13:41.631Z,13.00
2023-03-17T17:16:17.454Z,13.00
2023-03-17T17:18:47.275Z,13.00
2023-03-17T17:21:18.371Z,13.10
2023-03-17T17:23:46.584Z,13.10
2023-03-17T17:26:14.724Z,13.20
2023-03-17T17:28:42.876Z,13.10
2023-03-17T17:31:12.352Z,13.10
2023-03-17T17:33:40.548Z,13.00
2023-03-17T17:36:12.924Z,12.90
2023-03-17T17:38:41.316Z,13.00
2023-03-17T17:41:10.413Z,12.90
2023-03-17T17:43:38.524Z,12.90
2023-03-17T17:46:13.417Z,12.90
2023-03-17T17:48:41.539Z,12.80
2023-03-17T17:51:09.692Z,12.80
2023-03-17T17:53:37.946Z,12.90
2023-03-17T17:56:06.416Z,12.90
2023-03-17T17:58:34.423Z,13.00
2023-03-17T18:01:04.791Z,13.00
2023-03-17T18:03:34.251Z,12.90
2023-03-17T18:06:02.529Z,13.00
2023-03-17T18:08:30.544Z,12.90
2023-03-17T18:10:58.569Z,12.90
2023-03-17T18:13:26.634Z,12.80
2023-03-17T18:15:54.672Z,12.80
2023-03-17T18:18:22.729Z,12.80
2023-03-17T18:20:53.138Z,12.80
2023-03-17T18:23:21.617Z,12.80
2023-03-17T18:25:49.692Z,12.90
2023-03-17T18:28:18.050Z,13.00
2023-03-17T18:30:46.154Z,13.00
2023-03-17T18:33:15.791Z,12.90
2023-03-17T18:35:43.978Z,12.80
2023-03-17T18:38:13.424Z,12.80
2023-03-17T18:40:41.913Z,12.90
2023-03-17T18:43:09.996Z,12.80
2023-03-17T18:45:38.076Z,12.80
2023-03-17T18:48:06.233Z,12.70
2023-03-17T18:50:34.399Z,12.70
2023-03-17T18:53:02.594Z,12.80
2023-03-17T18:55:31.982Z,12.80
2023-03-17T18:58:00.002Z,12.90
2023-03-17T19:00:28.087Z,12.80
2023-03-17T19:02:56.251Z,12.80
2023-03-17T19:05:25.686Z,12.80
2023-03-17T19:07:53.778Z,12.80
2023-03-17T19:10:21.865Z,12.80
2023-03-17T19:12:52.131Z,12.80
2023-03-17T19:15:20.761Z,12.70
2023-03-17T19:17:50.389Z,12.60
2023-03-17T19:20:19.816Z,12.70
2023-03-17T19:22:47.849Z,12.80
2023-03-17T19:25:16.626Z,12.80
2023-03-17T19:27:44.741Z,12.80
2023-03-17T19:30:14.840Z,12.80
2023-03-17T19:32:42.911Z,12.70
2023-03-17T19:35:11.721Z,12.60
2023-03-17T19:37:39.796Z,12.60
2023-03-17T19:40:09.840Z,12.70
2023-03-17T19:42:38.012Z,12.60
2023-03-17T19:45:06.968Z,12.60
2023-03-17T19:47:36.430Z,12.70
2023-03-17T19:50:07.182Z,12.60
2023-03-17T19:52:35.614Z,12.60
2023-03-17T19:55:05.449Z,12.70
2023-03-17T19:57:35.504Z,12.70
2023-03-17T20:00:03.788Z,12.70
2023-03-17T20:02:32.010Z,12.70
2023-03-17T20:05:01.514Z,12.70
2023-03-17T20:07:29.720Z,12.70
2023-03-17T20:09:58.108Z,12.60
2023-03-17T20:12:26.545Z,12.60
2023-03-17T20:14:54.643Z,12.60
2023-03-17T20:17:22.815Z,12.60
2023-03-17T20:19:50.869Z,12.60
2023-03-17T20:22:23.222Z,12.60
2023-03-17T20:24:51.625Z,12.70
2023-03-17T20:27:19.909Z,12.70
2023-03-17T20:29:48.613Z,12.70
2023-03-17T20:32:17.290Z,12.60
2023-03-17T20:34:45.442Z,12.60
2023-03-17T20:37:14.234Z,12.70
2023-03-17T20:39:44.059Z,12.60
2023-03-17T20:42:14.824Z,12.60
2023-03-17T20:44:43.030Z,12.50
2023-03-17T20:47:11.433Z,12.60
2023-03-17T20:49:39.588Z,12.50
2023-03-17T20:52:11.970Z,12.40
2023-03-17T20:54:40.480Z,12.60
2023-03-17T20:57:11.366Z,12.60
2023-03-17T20:59:39.786Z,12.60
2023-03-17T21:02:10.332Z,12.60
2023-03-17T21:04:38.392Z,12.60
2023-03-17T21:07:06.676Z,12.50
2023-03-17T21:09:34.790Z,12.60
2023-03-17T21:12:02.949Z,12.50
2023-03-17T21:14:32.669Z,12.40
2023-03-17T21:17:01.355Z,12.50
2023-03-17T21:19:29.476Z,12.50
2023-03-17T21:21:57.966Z,12.50
2023-03-17T21:24:28.188Z,12.60
2023-03-17T21:26:56.436Z,12.60
2023-03-17T21:29:24.558Z,12.60
2023-03-17T21:31:54.357Z,12.50
2023-03-17T21:34:24.389Z,12.50
2023-03-17T21:36:52.750Z,12.40
2023-03-17T21:39:20.908Z,12.40
2023-03-17T21:41:49.207Z,12.50
2023-03-17T21:44:17.902Z,12.50
2023-03-17T21:46:46.340Z,12.50
2023-03-17T21:49:16.360Z,12.50
2023-03-17T21:51:44.555Z,12.50
2023-03-17T21:54:12.622Z,12.50
2023-03-17T21:56:41.526Z,12.40
2023-03-17T21:59:11.028Z,12.50
2023-03-17T22:01:39.606Z,12.50
2023-03-17T22:04:07.874Z,12.50
2023-03-17T22:06:37.529Z,12.50
2023-03-17T22:09:05.695Z,12.50
2023-03-17T22:11:33.747Z,12.40
2023-03-17T22:14:02.042Z,12.40
2023-03-17T22:16:30.321Z,12.40
2023-03-17T22:18:58.342Z,12.50
2023-03-17T22:21:26.437Z,12.40
2023-03-17T22:23:56.009Z,12.50
2023-03-17T22:26:24.143Z,12.50
2023-03-17T22:28:52.272Z,12.50
2023-03-17T22:31:21.405Z,12.50
2023-03-17T22:33:49.549Z,12.40
2023-03-17T22:36:17.960Z,12.50
2023-03-17T22:38:46.030Z,12.40
2023-03-17T22:41:16.721Z,12.40
2023-03-17T22:43:44.864Z,12.40
2023-03-17T22:46:12.954Z,12.40
2023-03-17T22:48:41.230Z,12.40
2023-03-17T22:51:11.029Z,12.40
2023-03-17T22:53:39.347Z,12.40
2023-03-17T22:56:08.090Z,12.50
2023-03-17T22:58:37.680Z,12.50
2023-03-17T23:01:06.885Z,12.50
2023-03-17T23:03:35.133Z,12.40
2023-03-17T23:06:03.907Z,12.50
2023-03-17T23:08:35.161Z,12.50
2023-03-17T23:11:04.644Z,12.50
2023-03-17T23:13:32.689Z,12.40
2023-03-17T23:16:02.590Z,12.40
2023-03-17T23:18:30.678Z,12.40
2023-03-17T23:20:58.811Z,12.40
2023-03-17T23:23:26.911Z,12.50
2023-03-17T23:25:55.008Z,12.50
2023-03-17T23:28:23.202Z,12.50
2023-03-17T23:30:51.310Z,12.40
2023-03-17T23:33:22.767Z,12.40
2023-03-17T23:35:51.535Z,12.30
2023-03-17T23:38:21.395Z,12.30
2023-03-17T23:40:49.833Z,12.40
2023-03-17T23:43:18.080Z,12.50
2023-03-17T23:45:46.592Z,12.30
2023-03-17T23:48:15.202Z,12.40
2023-03-17T23:50:44.692Z,12.40
2023-03-17T23:53:13.293Z,12.40
2023-03-17T23:55:41.418Z,12.40
2023-03-17T23:58:09.452Z,12.40
